sensor_id;sensor_type;location;lat;lon;timestamp;pressure;altitude;pressure_sealevel;temperature;humidity
48624;BME280;34422;45.802;16.114;2022-08-03T00:02:03;100373.44;;;18.45;100.00
48624;BME280;34422;45.802;16.114;2022-08-03T00:04:29;100379.47;;;18.42;100.00
48624;BME280;34422;45.802;16.114;2022-08-03T00:06:56;100379.47;;;18.42;100.00
48624;BME280;34422;45.802;16.114;2022-08-03T00:09:23;100379.41;;;18.37;100.00
48624;BME280;34422;45.802;16.114;2022-08-03T00:11:50;100361.31;;;18.31;100.00
48624;BME280;34422;45.802;16.114;2022-08-03T00:14:16;100370.59;;;18.30;100.00
48624;BME280;34422;45.802;16.114;2022-08-03T00:16:43;100373.28;;;18.25;100.00
48624;BME280;34422;45.802;16.114;2022-08-03T00:19:10;100366.09;;;18.19;100.00
48624;BME280;34422;45.802;16.114;2022-08-03T00:21:36;100366.38;;;18.17;100.00
48624;BME280;34422;45.802;16.114;2022-08-03T00:24:03;100365.56;;;18.17;100.00
48624;BME280;34422;45.802;16.114;2022-08-03T00:26:30;100366.66;;;18.21;100.00
48624;BME280;34422;45.802;16.114;2022-08-03T00:28:57;100370.25;;;18.21;100.00
48624;BME280;34422;45.802;16.114;2022-08-03T00:31:24;100376.53;;;18.17;100.00
48624;BME280;34422;45.802;16.114;2022-08-03T00:33:51;100364.41;;;18.13;100.00
48624;BME280;34422;45.802;16.114;2022-08-03T00:36:17;100364.94;;;18.09;100.00
48624;BME280;34422;45.802;16.114;2022-08-03T00:38:46;100372.56;;;18.07;100.00
48624;BME280;34422;45.802;16.114;2022-08-03T00:41:12;100363.78;;;18.05;100.00
48624;BME280;34422;45.802;16.114;2022-08-03T00:43:39;100370.91;;;18.01;100.00
48624;BME280;34422;45.802;16.114;2022-08-03T00:46:06;100369.56;;;18.04;100.00
48624;BME280;34422;45.802;16.114;2022-08-03T00:48:33;100366.25;;;18.02;100.00
48624;BME280;34422;45.802;16.114;2022-08-03T00:51:00;100366.50;;;18.00;100.00
48624;BME280;34422;45.802;16.114;2022-08-03T00:53:27;100364.53;;;17.96;100.00
48624;BME280;34422;45.802;16.114;2022-08-03T00:55:55;100372.47;;;17.97;100.00
48624;BME280;34422;45.802;16.114;2022-08-03T00:58:22;100365.63;;;17.95;100.00
48624;BME280;34422;45.802;16.114;2022-08-03T01:00:49;100364.22;;;17.92;100.00
48624;BME280;34422;45.802;16.114;2022-08-03T01:03:17;100360.66;;;17.92;100.00
48624;BME280;34422;45.802;16.114;2022-08-03T01:06:12;100365.88;;;17.93;100.00
48624;BME280;34422;45.802;16.114;2022-08-03T01:11:35;100364.22;;;17.92;100.00
48624;BME280;34422;45.802;16.114;2022-08-03T01:14:20;100364.75;;;17.89;100.00
48624;BME280;34422;45.802;16.114;2022-08-03T01:16:56;100363.66;;;17.90;100.00
48624;BME280;34422;45.802;16.114;2022-08-03T01:27:53;100367.94;;;17.81;100.00
48624;BME280;34422;45.802;16.114;2022-08-03T01:30:28;100373.41;;;17.81;100.00
48624;BME280;34422;45.802;16.114;2022-08-03T01:33:09;100361.88;;;17.79;100.00
48624;BME280;34422;45.802;16.114;2022-08-03T01:35:45;100365.16;;;17.76;100.00
48624;BME280;34422;45.802;16.114;2022-08-03T01:38:14;100366.69;;;17.67;100.00
48624;BME280;34422;45.802;16.114;2022-08-03T01:40:44;100359.75;;;17.59;100.00
48624;BME280;34422;45.802;16.114;2022-08-03T01:43:16;100361.25;;;17.50;100.00
48624;BME280;34422;45.802;16.114;2022-08-03T01:45:43;100359.31;;;17.46;100.00
48624;BME280;34422;45.802;16.114;2022-08-03T01:48:11;100355.78;;;17.50;100.00
48624;BME280;34422;45.802;16.114;2022-08-03T01:50:42;100353.34;;;17.49;100.00
48624;BME280;34422;45.802;16.114;2022-08-03T01:53:13;100357.91;;;17.43;100.00
48624;BME280;34422;45.802;16.114;2022-08-03T01:55:42;100357.53;;;17.34;100.00
48624;BME280;34422;45.802;16.114;2022-08-03T01:58:10;100355.81;;;17.28;100.00
48624;BME280;34422;45.802;16.114;2022-08-03T02:00:40;100354.91;;;17.23;100.00
48624;BME280;34422;45.802;16.114;2022-08-03T02:03:08;100345.31;;;17.20;100.00
48624;BME280;34422;45.802;16.114;2022-08-03T02:05:42;100345.81;;;17.17;100.00
48624;BME280;34422;45.802;16.114;2022-08-03T02:08:12;100352.63;;;17.15;100.00
48624;BME280;34422;45.802;16.114;2022-08-03T02:10:40;100354.28;;;17.16;100.00
48624;BME280;34422;45.802;16.114;2022-08-03T02:13:09;100349.63;;;17.16;100.00
48624;BME280;34422;45.802;16.114;2022-08-03T02:15:37;100349.13;;;17.19;100.00
48624;BME280;34422;45.802;16.114;2022-08-03T02:18:05;100343.66;;;17.19;100.00
48624;BME280;34422;45.802;16.114;2022-08-03T02:20:33;100346.97;;;17.21;100.00
48624;BME280;34422;45.802;16.114;2022-08-03T02:23:03;100344.25;;;17.21;100.00
48624;BME280;34422;45.802;16.114;2022-08-03T02:25:34;100346.69;;;17.23;100.00
48624;BME280;34422;45.802;16.114;2022-08-03T02:28:10;100351.63;;;17.21;100.00
48624;BME280;34422;45.802;16.114;2022-08-03T02:30:38;100350.78;;;17.20;100.00
48624;BME280;34422;45.802;16.114;2022-08-03T02:33:10;100342.00;;;17.18;100.00
48624;BME280;34422;45.802;16.114;2022-08-03T02:35:38;100339.19;;;17.13;100.00
48624;BME280;34422;45.802;16.114;2022-08-03T02:38:07;100341.34;;;17.11;100.00
48624;BME280;34422;45.802;16.114;2022-08-03T02:40:35;100351.53;;;17.16;100.00
48624;BME280;34422;45.802;16.114;2022-08-03T02:43:09;100353.44;;;17.15;100.00
48624;BME280;34422;45.802;16.114;2022-08-03T02:45:43;100353.94;;;17.12;100.00
48624;BME280;34422;45.802;16.114;2022-08-03T02:48:15;100352.28;;;17.11;100.00
48624;BME280;34422;45.802;16.114;2022-08-03T02:50:43;100359.41;;;17.12;100.00
48624;BME280;34422;45.802;16.114;2022-08-03T02:53:11;100355.28;;;17.10;100.00
48624;BME280;34422;45.802;16.114;2022-08-03T02:55:39;100354.44;;;17.09;100.00
48624;BME280;34422;45.802;16.114;2022-08-03T02:58:08;100355.56;;;17.08;100.00
48624;BME280;34422;45.802;16.114;2022-08-03T03:00:38;100351.66;;;17.04;100.00
48624;BME280;34422;45.802;16.114;2022-08-03T03:03:06;100353.69;;;16.92;100.00
48624;BME280;34422;45.802;16.114;2022-08-03T03:05:34;100362.13;;;16.90;100.00
48624;BME280;34422;45.802;16.114;2022-08-03T03:08:02;100355.84;;;16.90;100.00
48624;BME280;34422;45.802;16.114;2022-08-03T03:10:29;100354.19;;;16.89;100.00
48624;BME280;34422;45.802;16.114;2022-08-03T03:12:57;100350.97;;;16.92;100.00
48624;BME280;34422;45.802;16.114;2022-08-03T03:15:25;100349.34;;;16.96;100.00
48624;BME280;34422;45.802;16.114;2022-08-03T03:17:53;100363.03;;;16.96;100.00
48624;BME280;34422;45.802;16.114;2022-08-03T03:20:21;100363.59;;;16.98;100.00
48624;BME280;34422;45.802;16.114;2022-08-03T03:22:49;100360.28;;;16.96;100.00
48624;BME280;34422;45.802;16.114;2022-08-03T03:25:17;100363.28;;;16.94;100.00
48624;BME280;34422;45.802;16.114;2022-08-03T03:27:45;100367.34;;;16.92;100.00
48624;BME280;34422;45.802;16.114;2022-08-03T03:30:12;100368.44;;;16.91;100.00
48624;BME280;34422;45.802;16.114;2022-08-03T03:32:40;100372.81;;;16.92;100.00
48624;BME280;34422;45.802;16.114;2022-08-03T03:35:07;100375.56;;;16.92;100.00
48624;BME280;34422;45.802;16.114;2022-08-03T03:37:35;100377.22;;;16.93;100.00
48624;BME280;34422;45.802;16.114;2022-08-03T03:40:02;100378.03;;;16.93;100.00
48624;BME280;34422;45.802;16.114;2022-08-03T03:42:29;100372.25;;;16.90;100.00
48624;BME280;34422;45.802;16.114;2022-08-03T03:44:56;100371.50;;;16.94;100.00
48624;BME280;34422;45.802;16.114;2022-08-03T03:47:23;100373.41;;;16.94;100.00
48624;BME280;34422;45.802;16.114;2022-08-03T03:49:49;100373.94;;;16.96;100.00
48624;BME280;34422;45.802;16.114;2022-08-03T03:52:16;100376.69;;;16.96;100.00
48624;BME280;34422;45.802;16.114;2022-08-03T03:54:44;100380.94;;;16.87;100.00
48624;BME280;34422;45.802;16.114;2022-08-03T03:57:11;100382.59;;;16.88;100.00
48624;BME280;34422;45.802;16.114;2022-08-03T03:59:41;100388.63;;;16.90;100.00
48624;BME280;34422;45.802;16.114;2022-08-03T04:02:09;100388.69;;;16.95;100.00
48624;BME280;34422;45.802;16.114;2022-08-03T04:04:37;100394.09;;;16.90;100.00
48624;BME280;34422;45.802;16.114;2022-08-03T04:07:24;100391.63;;;16.88;100.00
48624;BME280;34422;45.802;16.114;2022-08-03T04:10:22;100388.06;;;16.88;100.00
48624;BME280;34422;45.802;16.114;2022-08-03T04:13:13;100394.25;;;17.00;100.00
48624;BME280;34422;45.802;16.114;2022-08-03T04:15:43;100402.03;;;17.08;100.00
48624;BME280;34422;45.802;16.114;2022-08-03T04:18:12;100403.16;;;17.12;100.00
48624;BME280;34422;45.802;16.114;2022-08-03T04:20:45;100400.75;;;17.16;100.00
48624;BME280;34422;45.802;16.114;2022-08-03T04:23:15;100395.88;;;17.18;100.00
48624;BME280;34422;45.802;16.114;2022-08-03T04:25:42;100398.97;;;17.26;100.00
48624;BME280;34422;45.802;16.114;2022-08-03T04:28:26;100402.63;;;17.32;100.00
48624;BME280;34422;45.802;16.114;2022-08-03T04:30:55;100401.09;;;17.41;100.00
48624;BME280;34422;45.802;16.114;2022-08-03T04:33:24;100410.03;;;17.36;100.00
48624;BME280;34422;45.802;16.114;2022-08-03T04:35:54;100406.75;;;17.34;100.00
48624;BME280;34422;45.802;16.114;2022-08-03T04:38:24;100410.22;;;17.47;100.00
48624;BME280;34422;45.802;16.114;2022-08-03T04:40:53;100411.31;;;17.51;100.00
48624;BME280;34422;45.802;16.114;2022-08-03T04:43:21;100406.19;;;17.54;100.00
48624;BME280;34422;45.802;16.114;2022-08-03T04:45:49;100408.66;;;17.56;100.00
48624;BME280;34422;45.802;16.114;2022-08-03T04:48:18;100411.47;;;17.61;100.00
48624;BME280;34422;45.802;16.114;2022-08-03T04:50:46;100413.47;;;17.65;100.00
48624;BME280;34422;45.802;16.114;2022-08-03T04:53:13;100407.81;;;17.72;100.00
48624;BME280;34422;45.802;16.114;2022-08-03T04:55:40;100418.28;;;17.80;100.00
48624;BME280;34422;45.802;16.114;2022-08-03T04:58:06;100424.00;;;18.00;100.00
48624;BME280;34422;45.802;16.114;2022-08-03T05:00:33;100421.88;;;18.07;100.00
48624;BME280;34422;45.802;16.114;2022-08-03T05:03:00;100422.00;;;18.18;100.00
48624;BME280;34422;45.802;16.114;2022-08-03T05:05:27;100422.09;;;18.28;100.00
48624;BME280;34422;45.802;16.114;2022-08-03T05:07:53;100427.72;;;18.48;100.00
48624;BME280;34422;45.802;16.114;2022-08-03T05:10:21;100431.47;;;18.64;100.00
48624;BME280;34422;45.802;16.114;2022-08-03T05:12:48;100432.91;;;18.71;100.00
48624;BME280;34422;45.802;16.114;2022-08-03T05:15:17;100432.59;;;18.68;100.00
48624;BME280;34422;45.802;16.114;2022-08-03T05:17:43;100435.69;;;18.76;100.00
48624;BME280;34422;45.802;16.114;2022-08-03T05:20:10;100432.75;;;18.88;100.00
48624;BME280;34422;45.802;16.114;2022-08-03T05:22:37;100435.16;;;18.79;100.00
48624;BME280;34422;45.802;16.114;2022-08-03T05:25:04;100439.16;;;18.99;100.00
48624;BME280;34422;45.802;16.114;2022-08-03T05:27:31;100439.78;;;19.16;100.00
48624;BME280;34422;45.802;16.114;2022-08-03T05:29:58;100448.25;;;19.51;100.00
48624;BME280;34422;45.802;16.114;2022-08-03T05:32:25;100450.59;;;19.85;100.00
48624;BME280;34422;45.802;16.114;2022-08-03T05:34:52;100447.97;;;20.31;100.00
48624;BME280;34422;45.802;16.114;2022-08-03T05:37:19;100454.59;;;21.06;100.00
48624;BME280;34422;45.802;16.114;2022-08-03T05:39:46;100444.66;;;21.35;100.00
48624;BME280;34422;45.802;16.114;2022-08-03T05:42:14;100448.50;;;21.39;100.00
48624;BME280;34422;45.802;16.114;2022-08-03T05:44:41;100450.63;;;21.62;100.00
48624;BME280;34422;45.802;16.114;2022-08-03T05:47:08;100450.84;;;21.76;100.00
48624;BME280;34422;45.802;16.114;2022-08-03T05:49:35;100449.41;;;21.89;100.00
48624;BME280;34422;45.802;16.114;2022-08-03T05:52:01;100457.16;;;21.82;100.00
48624;BME280;34422;45.802;16.114;2022-08-03T05:54:28;100452.28;;;21.63;100.00
48624;BME280;34422;45.802;16.114;2022-08-03T05:56:55;100455.94;;;21.18;100.00
48624;BME280;34422;45.802;16.114;2022-08-03T05:59:22;100460.09;;;21.06;100.00
48624;BME280;34422;45.802;16.114;2022-08-03T06:01:48;100462.28;;;21.34;100.00
48624;BME280;34422;45.802;16.114;2022-08-03T06:04:15;100461.03;;;21.86;100.00
48624;BME280;34422;45.802;16.114;2022-08-03T06:06:42;100463.66;;;22.11;100.00
48624;BME280;34422;45.802;16.114;2022-08-03T06:09:09;100462.41;;;22.38;100.00
48624;BME280;34422;45.802;16.114;2022-08-03T06:11:36;100467.88;;;23.39;100.00
48624;BME280;34422;45.802;16.114;2022-08-03T06:14:03;100464.13;;;24.02;100.00
48624;BME280;34422;45.802;16.114;2022-08-03T06:16:33;100471.72;;;23.67;99.07
48624;BME280;34422;45.802;16.114;2022-08-03T06:19:03;100457.66;;;24.49;95.41
48624;BME280;34422;45.802;16.114;2022-08-03T06:21:30;100464.97;;;24.91;93.53
48624;BME280;34422;45.802;16.114;2022-08-03T06:23:57;100472.44;;;25.97;85.97
48624;BME280;34422;45.802;16.114;2022-08-03T06:26:24;100471.47;;;26.15;83.81
48624;BME280;34422;45.802;16.114;2022-08-03T06:28:52;100474.34;;;26.37;81.74
48624;BME280;34422;45.802;16.114;2022-08-03T06:31:23;100475.66;;;26.26;84.26
48624;BME280;34422;45.802;16.114;2022-08-03T06:33:51;100474.97;;;26.20;81.14
48624;BME280;34422;45.802;16.114;2022-08-03T06:36:18;100472.69;;;26.36;81.24
48624;BME280;34422;45.802;16.114;2022-08-03T06:38:45;100483.75;;;27.48;76.53
48624;BME280;34422;45.802;16.114;2022-08-03T06:41:12;100480.59;;;27.32;73.18
48624;BME280;34422;45.802;16.114;2022-08-03T06:43:38;100483.34;;;27.63;72.28
48624;BME280;34422;45.802;16.114;2022-08-03T06:46:05;100485.44;;;27.27;72.33
48624;BME280;34422;45.802;16.114;2022-08-03T06:48:32;100485.50;;;27.04;72.99
48624;BME280;34422;45.802;16.114;2022-08-03T06:50:59;100480.38;;;26.39;77.89
48624;BME280;34422;45.802;16.114;2022-08-03T06:53:25;100486.22;;;27.89;72.64
48624;BME280;34422;45.802;16.114;2022-08-03T06:55:52;100477.00;;;27.32;72.21
48624;BME280;34422;45.802;16.114;2022-08-03T06:58:19;100482.66;;;27.27;73.38
48624;BME280;34422;45.802;16.114;2022-08-03T07:00:45;100477.63;;;27.29;72.28
48624;BME280;34422;45.802;16.114;2022-08-03T07:03:12;100484.19;;;26.88;73.98
48624;BME280;34422;45.802;16.114;2022-08-03T07:05:41;100483.34;;;27.01;75.08
48624;BME280;34422;45.802;16.114;2022-08-03T07:08:08;100485.88;;;27.51;73.61
48624;BME280;34422;45.802;16.114;2022-08-03T07:10:35;100482.31;;;27.19;74.02
48624;BME280;34422;45.802;16.114;2022-08-03T07:13:03;100488.84;;;28.94;67.91
48624;BME280;34422;45.802;16.114;2022-08-03T07:15:30;100493.97;;;29.85;61.91
48624;BME280;34422;45.802;16.114;2022-08-03T07:17:57;100489.75;;;29.70;61.43
48624;BME280;34422;45.802;16.114;2022-08-03T07:20:24;100497.13;;;29.75;61.32
48624;BME280;34422;45.802;16.114;2022-08-03T07:22:58;100489.28;;;29.22;66.91
48624;BME280;34422;45.802;16.114;2022-08-03T07:25:25;100493.31;;;29.80;63.25
48624;BME280;34422;45.802;16.114;2022-08-03T07:27:52;100493.22;;;30.06;59.80
48624;BME280;34422;45.802;16.114;2022-08-03T07:30:19;100484.63;;;29.52;59.42
48624;BME280;34422;45.802;16.114;2022-08-03T07:32:46;100489.63;;;30.26;59.20
48624;BME280;34422;45.802;16.114;2022-08-03T07:35:12;100485.03;;;30.30;56.40
48624;BME280;34422;45.802;16.114;2022-08-03T07:37:39;100490.47;;;29.59;59.69
48624;BME280;34422;45.802;16.114;2022-08-03T07:40:06;100490.72;;;30.96;54.84
48624;BME280;34422;45.802;16.114;2022-08-03T07:42:33;100492.06;;;31.56;54.66
48624;BME280;34422;45.802;16.114;2022-08-03T07:45:00;100491.41;;;32.07;51.46
48624;BME280;34422;45.802;16.114;2022-08-03T07:47:28;100500.94;;;32.31;48.70
48624;BME280;34422;45.802;16.114;2022-08-03T07:49:56;100491.97;;;32.77;47.42
48624;BME280;34422;45.802;16.114;2022-08-03T07:52:23;100492.13;;;32.57;48.62
48624;BME280;34422;45.802;16.114;2022-08-03T07:55:08;100494.81;;;32.53;46.42
48624;BME280;34422;45.802;16.114;2022-08-03T07:57:36;100496.44;;;32.94;45.68
48624;BME280;34422;45.802;16.114;2022-08-03T08:00:05;100496.91;;;32.56;46.07
48624;BME280;34422;45.802;16.114;2022-08-03T08:02:34;100490.13;;;31.23;47.37
48624;BME280;34422;45.802;16.114;2022-08-03T08:05:01;100500.63;;;32.20;47.72
48624;BME280;34422;45.802;16.114;2022-08-03T08:07:28;100503.84;;;32.46;45.42
48624;BME280;34422;45.802;16.114;2022-08-03T08:09:55;100505.91;;;31.40;47.05
48624;BME280;34422;45.802;16.114;2022-08-03T08:12:22;100499.19;;;30.87;43.71
48624;BME280;34422;45.802;16.114;2022-08-03T08:14:57;100500.75;;;30.97;43.97
48624;BME280;34422;45.802;16.114;2022-08-03T08:17:24;100504.81;;;31.32;44.18
48624;BME280;34422;45.802;16.114;2022-08-03T08:19:50;100502.81;;;31.90;42.22
48624;BME280;34422;45.802;16.114;2022-08-03T08:22:18;100500.38;;;32.01;43.11
48624;BME280;34422;45.802;16.114;2022-08-03T08:24:45;100502.13;;;31.93;44.19
48624;BME280;34422;45.802;16.114;2022-08-03T08:27:14;100498.41;;;31.77;42.72
48624;BME280;34422;45.802;16.114;2022-08-03T08:29:41;100500.06;;;31.33;42.41
48624;BME280;34422;45.802;16.114;2022-08-03T08:32:08;100506.34;;;32.24;41.89
48624;BME280;34422;45.802;16.114;2022-08-03T08:34:36;100499.69;;;31.22;42.01
48624;BME280;34422;45.802;16.114;2022-08-03T08:37:03;100500.03;;;31.78;41.82
48624;BME280;34422;45.802;16.114;2022-08-03T08:39:30;100493.94;;;31.64;41.58
48624;BME280;34422;45.802;16.114;2022-08-03T08:41:58;100501.78;;;32.07;40.58
48624;BME280;34422;45.802;16.114;2022-08-03T08:44:24;100495.66;;;32.41;38.80
48624;BME280;34422;45.802;16.114;2022-08-03T08:46:52;100494.38;;;32.51;39.38
48624;BME280;34422;45.802;16.114;2022-08-03T08:49:22;100498.59;;;32.45;40.40
48624;BME280;34422;45.802;16.114;2022-08-03T08:51:52;100491.19;;;32.25;38.93
48624;BME280;34422;45.802;16.114;2022-08-03T08:54:21;100492.28;;;31.63;40.72
48624;BME280;34422;45.802;16.114;2022-08-03T08:56:52;100485.81;;;31.83;40.37
48624;BME280;34422;45.802;16.114;2022-08-03T08:59:21;100489.34;;;31.02;40.72
48624;BME280;34422;45.802;16.114;2022-08-03T09:01:49;100483.94;;;31.18;42.63
48624;BME280;34422;45.802;16.114;2022-08-03T09:04:16;100487.63;;;31.55;42.61
48624;BME280;34422;45.802;16.114;2022-08-03T09:06:43;100482.63;;;31.60;41.74
48624;BME280;34422;45.802;16.114;2022-08-03T09:09:10;100484.13;;;31.00;45.33
48624;BME280;34422;45.802;16.114;2022-08-03T09:11:41;100485.09;;;31.86;45.10
48624;BME280;34422;45.802;16.114;2022-08-03T09:14:09;100487.28;;;32.29;42.61
48624;BME280;34422;45.802;16.114;2022-08-03T09:16:36;100484.16;;;32.06;43.51
48624;BME280;34422;45.802;16.114;2022-08-03T09:19:12;100483.59;;;31.89;41.95
48624;BME280;34422;45.802;16.114;2022-08-03T09:21:39;100484.84;;;31.55;41.57
48624;BME280;34422;45.802;16.114;2022-08-03T09:24:06;100479.44;;;31.04;41.55
48624;BME280;34422;45.802;16.114;2022-08-03T09:26:34;100482.81;;;30.98;41.02
48624;BME280;34422;45.802;16.114;2022-08-03T09:29:03;100479.69;;;30.99;40.63
48624;BME280;34422;45.802;16.114;2022-08-03T09:34:09;100477.72;;;31.57;38.85
48624;BME280;34422;45.802;16.114;2022-08-03T09:36:38;100473.88;;;31.50;37.19
48624;BME280;34422;45.802;16.114;2022-08-03T09:39:11;100476.88;;;31.32;37.58
48624;BME280;34422;45.802;16.114;2022-08-03T09:41:41;100477.09;;;31.27;36.83
48624;BME280;34422;45.802;16.114;2022-08-03T09:44:08;100474.19;;;31.03;36.42
48624;BME280;34422;45.802;16.114;2022-08-03T09:46:51;100477.59;;;31.29;36.92
48624;BME280;34422;45.802;16.114;2022-08-03T09:49:18;100475.31;;;31.11;35.51
48624;BME280;34422;45.802;16.114;2022-08-03T09:51:45;100469.56;;;31.07;36.94
48624;BME280;34422;45.802;16.114;2022-08-03T09:54:12;100478.88;;;31.44;37.72
48624;BME280;34422;45.802;16.114;2022-08-03T09:56:43;100472.41;;;31.19;36.94
48624;BME280;34422;45.802;16.114;2022-08-03T09:59:23;100469.63;;;31.31;37.94
48624;BME280;34422;45.802;16.114;2022-08-03T10:01:51;100457.06;;;31.37;37.83
48624;BME280;34422;45.802;16.114;2022-08-03T10:04:18;100462.97;;;31.12;40.27
48624;BME280;34422;45.802;16.114;2022-08-03T10:07:04;100457.63;;;31.19;38.24
48624;BME280;34422;45.802;16.114;2022-08-03T10:09:32;100458.91;;;31.21;36.56
48624;BME280;34422;45.802;16.114;2022-08-03T10:12:12;100460.91;;;30.67;37.90
48624;BME280;34422;45.802;16.114;2022-08-03T10:14:40;100448.56;;;30.89;42.28
48624;BME280;34422;45.802;16.114;2022-08-03T10:17:09;100442.91;;;30.77;39.68
48624;BME280;34422;45.802;16.114;2022-08-03T10:19:36;100456.59;;;30.57;37.12
48624;BME280;34422;45.802;16.114;2022-08-03T10:22:09;100449.22;;;30.73;37.00
48624;BME280;34422;45.802;16.114;2022-08-03T10:24:39;100450.13;;;30.78;37.23
48624;BME280;34422;45.802;16.114;2022-08-03T10:27:10;100449.22;;;30.73;37.39
48624;BME280;34422;45.802;16.114;2022-08-03T10:29:43;100445.41;;;30.57;40.49
48624;BME280;34422;45.802;16.114;2022-08-03T10:32:41;100444.16;;;30.67;38.13
48624;BME280;34422;45.802;16.114;2022-08-03T10:35:12;100440.22;;;30.68;36.70
48624;BME280;34422;45.802;16.114;2022-08-03T10:37:41;100437.22;;;30.73;37.95
48624;BME280;34422;45.802;16.114;2022-08-03T10:40:13;100438.25;;;31.01;35.89
48624;BME280;34422;45.802;16.114;2022-08-03T10:42:42;100430.63;;;30.90;36.08
48624;BME280;34422;45.802;16.114;2022-08-03T10:45:22;100427.56;;;30.83;37.07
48624;BME280;34422;45.802;16.114;2022-08-03T10:47:52;100420.84;;;30.84;37.48
48624;BME280;34422;45.802;16.114;2022-08-03T10:50:23;100431.06;;;30.80;36.85
48624;BME280;34422;45.802;16.114;2022-08-03T10:53:00;100420.22;;;30.78;37.19
48624;BME280;34422;45.802;16.114;2022-08-03T10:55:41;100418.50;;;30.86;36.42
48624;BME280;34422;45.802;16.114;2022-08-03T11:01:04;100411.53;;;30.92;36.50
48624;BME280;34422;45.802;16.114;2022-08-03T11:03:30;100407.13;;;31.03;37.87
48624;BME280;34422;45.802;16.114;2022-08-03T11:06:22;100414.34;;;31.04;37.72
48624;BME280;34422;45.802;16.114;2022-08-03T11:11:37;100409.22;;;30.94;37.12
48624;BME280;34422;45.802;16.114;2022-08-03T11:14:09;100404.31;;;30.91;36.86
48624;BME280;34422;45.802;16.114;2022-08-03T11:16:39;100395.22;;;30.82;36.22
48624;BME280;34422;45.802;16.114;2022-08-03T11:19:09;100396.84;;;30.83;37.11
48624;BME280;34422;45.802;16.114;2022-08-03T11:30:09;100391.59;;;31.14;35.21
48624;BME280;34422;45.802;16.114;2022-08-03T11:43:01;100379.59;;;31.14;34.71
48624;BME280;34422;45.802;16.114;2022-08-03T11:45:29;100374.94;;;31.42;35.47
48624;BME280;34422;45.802;16.114;2022-08-03T11:47:59;100373.53;;;31.60;34.99
48624;BME280;34422;45.802;16.114;2022-08-03T11:50:35;100374.34;;;31.12;34.97
48624;BME280;34422;45.802;16.114;2022-08-03T11:53:04;100360.88;;;30.93;35.16
48624;BME280;34422;45.802;16.114;2022-08-03T11:55:32;100364.03;;;31.04;35.08
48624;BME280;34422;45.802;16.114;2022-08-03T11:58:00;100366.91;;;31.40;36.60
48624;BME280;34422;45.802;16.114;2022-08-03T12:00:31;100355.03;;;31.68;36.22
48624;BME280;34422;45.802;16.114;2022-08-03T12:05:42;100356.16;;;31.79;35.08
48624;BME280;34422;45.802;16.114;2022-08-03T12:08:11;100349.91;;;31.70;34.78
48624;BME280;34422;45.802;16.114;2022-08-03T12:10:48;100352.03;;;32.01;36.13
48624;BME280;34422;45.802;16.114;2022-08-03T12:13:16;100344.41;;;32.13;34.06
48624;BME280;34422;45.802;16.114;2022-08-03T12:15:51;100346.72;;;31.84;34.38
48624;BME280;34422;45.802;16.114;2022-08-03T12:18:19;100349.53;;;31.71;34.42
48624;BME280;34422;45.802;16.114;2022-08-03T12:20:48;100347.66;;;31.63;34.79
48624;BME280;34422;45.802;16.114;2022-08-03T12:23:17;100358.38;;;31.49;35.07
48624;BME280;34422;45.802;16.114;2022-08-03T12:25:45;100346.84;;;31.63;35.20
48624;BME280;34422;45.802;16.114;2022-08-03T12:28:17;100344.75;;;31.84;35.24
48624;BME280;34422;45.802;16.114;2022-08-03T12:30:47;100347.63;;;31.88;35.16
48624;BME280;34422;45.802;16.114;2022-08-03T12:33:15;100330.38;;;32.26;34.93
48624;BME280;34422;45.802;16.114;2022-08-03T12:35:42;100347.16;;;32.54;34.42
48624;BME280;34422;45.802;16.114;2022-08-03T12:38:10;100336.56;;;31.91;34.33
48624;BME280;34422;45.802;16.114;2022-08-03T12:40:38;100333.72;;;32.03;35.05
48624;BME280;34422;45.802;16.114;2022-08-03T12:43:12;100324.44;;;32.15;35.85
48624;BME280;34422;45.802;16.114;2022-08-03T12:45:39;100340.34;;;32.11;35.40
48624;BME280;34422;45.802;16.114;2022-08-03T12:48:08;100326.41;;;31.87;35.92
48624;BME280;34422;45.802;16.114;2022-08-03T12:50:36;100327.19;;;31.99;36.16
48624;BME280;34422;45.802;16.114;2022-08-03T12:53:07;100320.75;;;32.11;35.82
48624;BME280;34422;45.802;16.114;2022-08-03T12:55:36;100318.09;;;32.02;35.71
48624;BME280;34422;45.802;16.114;2022-08-03T12:58:06;100317.84;;;32.07;35.78
48624;BME280;34422;45.802;16.114;2022-08-03T13:00:33;100313.75;;;32.05;35.90
48624;BME280;34422;45.802;16.114;2022-08-03T13:03:04;100312.81;;;31.61;36.76
48624;BME280;34422;45.802;16.114;2022-08-03T13:05:44;100318.81;;;31.87;36.00
48624;BME280;34422;45.802;16.114;2022-08-03T13:08:19;100310.25;;;32.08;35.43
48624;BME280;34422;45.802;16.114;2022-08-03T13:10:46;100310.09;;;31.89;34.88
48624;BME280;34422;45.802;16.114;2022-08-03T13:13:14;100306.13;;;32.18;35.08
48624;BME280;34422;45.802;16.114;2022-08-03T13:15:41;100295.63;;;32.14;35.08
48624;BME280;34422;45.802;16.114;2022-08-03T13:18:08;100299.13;;;31.96;35.09
48624;BME280;34422;45.802;16.114;2022-08-03T13:20:35;100299.78;;;32.05;35.23
48624;BME280;34422;45.802;16.114;2022-08-03T13:23:02;100293.13;;;32.09;36.23
48624;BME280;34422;45.802;16.114;2022-08-03T13:25:28;100287.28;;;32.02;35.87
48624;BME280;34422;45.802;16.114;2022-08-03T13:27:55;100295.16;;;31.97;35.47